Time,TemperatureF,DewpointF,PressureIn,WindDirection,WindDirectionDegrees,WindSpeedMPH,WindSpeedGustMPH,Humidity,HourlyPrecipIn,Conditions,Clouds,dailyrainin,SoftwareType,DateUTC
2013-04-29 00:01:00,49.1,44.2,30.20,South,180,1.1,1.1,83,0.00,,---,0.00,VWS V14.01,2013-04-29 07:01:00,
2013-04-29 00:06:00,49.3,44.4,30.20,South,180,8.7,8.7,83,0.00,,---,0.00,VWS V14.01,2013-04-29 07:06:00,
2013-04-29 00:11:00,49.3,44.7,30.20,South,180,5.1,5.1,84,0.00,,---,0.00,VWS V14.01,2013-04-29 07:11:00,
2013-04-29 00:16:00,49.3,44.4,30.19,South,180,1.8,1.8,83,0.00,,---,0.00,VWS V14.01,2013-04-29 07:16:00,
2013-04-29 00:21:00,49.3,44.4,30.19,South,180,5.8,5.8,83,0.00,,---,0.00,VWS V14.01,2013-04-29 07:21:00,
2013-04-29 00:26:00,49.3,44.7,30.19,WNW,292,6.0,6.0,84,0.00,,---,0.00,VWS V14.01,2013-04-29 07:26:00,
2013-04-29 00:31:00,49.3,44.7,30.19,South,180,3.4,3.4,84,0.00,,---,0.00,VWS V14.01,2013-04-29 07:31:00,
2013-04-29 00:36:00,49.3,44.4,30.19,South,180,3.8,3.8,83,0.00,,---,0.00,VWS V14.01,2013-04-29 07:36:00,
2013-04-29 00:41:00,49.3,44.7,30.19,South,180,4.0,4.0,84,0.00,,---,0.00,VWS V14.01,2013-04-29 07:41:00,
2013-04-29 00:46:00,49.3,44.7,30.19,South,180,2.5,2.5,84,0.00,,---,0.00,VWS V14.01,2013-04-29 07:46:00,
2013-04-29 00:51:00,49.5,44.6,30.20,South,180,6.9,6.9,83,0.00,,---,0.00,VWS V14.01,2013-04-29 07:51:00,
2013-04-29 00:56:00,49.7,45.4,30.19,South,180,8.7,8.7,85,0.00,,---,0.00,VWS V14.01,2013-04-29 07:56:00,
2013-04-29 01:01:00,49.7,45.4,30.19,South,180,2.9,2.9,85,0.00,,---,0.00,VWS V14.01,2013-04-29 08:01:00,
2013-04-29 01:06:00,49.7,45.4,30.20,South,180,2.0,2.0,85,0.00,,---,0.00,VWS V14.01,2013-04-29 08:06:00,
2013-04-29 01:11:00,49.7,45.4,30.19,South,180,5.8,5.8,85,0.00,,---,0.00,VWS V14.01,2013-04-29 08:11:00,
2013-04-29 01:16:00,49.7,45.7,30.20,South,180,6.9,6.9,86,0.00,,---,0.00,VWS V14.01,2013-04-29 08:16:00,
2013-04-29 01:21:00,49.7,45.4,30.20,South,180,3.6,3.8,85,0.00,,---,0.00,VWS V14.01,2013-04-29 08:21:00,
2013-04-29 01:26:00,49.7,45.7,30.20,South,180,6.5,6.5,86,0.00,,---,0.00,VWS V14.01,2013-04-29 08:26:00,
2013-04-29 01:30:00,49.7,45.7,30.20,South,180,2.2,2.2,86,0.00,,---,0.00,VWS V14.01,2013-04-29 08:30:00,
2013-04-29 01:35:00,49.7,45.7,30.20,South,180,3.4,4.0,86,0.00,,---,0.00,VWS V14.01,2013-04-29 08:35:00,
2013-04-29 01:40:00,49.7,45.7,30.20,South,180,1.1,2.5,86,0.00,,---,0.00,VWS V14.01,2013-04-29 08:40:00,
2013-04-29 01:45:00,49.7,45.7,30.20,South,180,1.8,5.4,86,0.00,,---,0.00,VWS V14.01,2013-04-29 08:45:00,
2013-04-29 01:50:00,49.9,45.9,30.20,South,180,3.4,6.5,86,0.00,,---,0.00,VWS V14.01,2013-04-29 08:50:00,
2013-04-29 01:55:00,50.0,46.0,30.21,South,180,2.2,2.5,86,0.00,,---,0.00,VWS V14.01,2013-04-29 08:55:00,
2013-04-29 02:00:00,50.0,46.0,30.21,South,180,1.1,1.6,86,0.00,,---,0.00,VWS V14.01,2013-04-29 09:00:00,
2013-04-29 02:05:00,50.0,46.0,30.21,South,180,0.2,1.1,86,0.00,,---,0.00,VWS V14.01,2013-04-29 09:05:00,
2013-04-29 02:10:00,50.0,46.0,30.21,South,180,3.4,3.4,86,0.00,,---,0.00,VWS V14.01,2013-04-29 09:10:00,
2013-04-29 02:15:00,49.9,45.9,30.21,South,180,1.6,1.6,86,0.00,,---,0.00,VWS V14.01,2013-04-29 09:15:00,
2013-04-29 02:20:00,49.9,45.9,30.22,South,180,0.9,2.2,86,0.00,,---,0.00,VWS V14.01,2013-04-29 09:20:00,
2013-04-29 02:25:00,49.7,45.7,30.22,South,180,1.1,1.1,86,0.00,,---,0.00,VWS V14.01,2013-04-29 09:25:00,
2013-04-29 02:30:00,49.7,45.7,30.22,South,180,1.1,1.1,86,0.00,,---,0.00,VWS V14.01,2013-04-29 09:30:00,
2013-04-29 02:35:00,49.7,45.7,30.22,South,180,3.6,3.6,86,0.00,,---,0.00,VWS V14.01,2013-04-29 09:35:00,
2013-04-29 02:40:00,49.7,45.7,30.23,South,180,1.8,1.8,86,0.00,,---,0.00,VWS V14.01,2013-04-29 09:40:00,
2013-04-29 02:45:00,49.5,45.2,30.23,South,180,1.6,1.6,85,0.00,,---,0.00,VWS V14.01,2013-04-29 09:45:00,
2013-04-29 02:50:00,49.3,45.0,30.23,South,180,4.5,4.5,85,0.00,,---,0.00,VWS V14.01,2013-04-29 09:50:00,
2013-04-29 02:55:00,49.1,44.8,30.23,South,180,1.8,3.4,85,0.00,,---,0.00,VWS V14.01,2013-04-29 09:55:00,
2013-04-29 03:00:00,49.0,44.7,30.24,South,180,1.8,1.8,85,0.00,,---,0.00,VWS V14.01,2013-04-29 10:00:00,
2013-04-29 03:05:00,48.8,44.5,30.24,South,180,0.7,1.8,85,0.00,,---,0.00,VWS V14.01,2013-04-29 10:05:00,
2013-04-29 03:10:00,48.6,44.3,30.24,South,180,1.1,1.1,85,0.00,,---,0.00,VWS V14.01,2013-04-29 10:10:00,
2013-04-29 03:15:00,48.6,44.3,30.24,South,180,1.8,1.8,85,0.00,,---,0.00,VWS V14.01,2013-04-29 10:15:00,
2013-04-29 03:20:00,48.4,44.1,30.24,South,180,2.7,2.7,85,0.00,,---,0.00,VWS V14.01,2013-04-29 10:20:00,
2013-04-29 03:25:00,48.1,43.5,30.25,South,180,0.9,2.9,84,0.00,,---,0.00,VWS V14.01,2013-04-29 10:25:00,
2013-04-29 03:30:00,47.9,43.3,30.25,South,180,3.4,3.4,84,0.00,,---,0.00,VWS V14.01,2013-04-29 10:30:00,
2013-04-29 03:35:00,47.3,42.4,30.25,South,180,1.8,3.4,83,0.00,,---,0.00,VWS V14.01,2013-04-29 10:35:00,
2013-04-29 03:40:00,47.0,42.1,30.26,South,180,0.9,4.5,83,0.00,,---,0.00,VWS V14.01,2013-04-29 10:40:00,
2013-04-29 03:45:00,46.6,41.7,30.26,South,180,2.5,2.5,83,0.00,,---,0.00,VWS V14.01,2013-04-29 10:45:00,
2013-04-29 03:50:00,46.4,41.5,30.26,South,180,0.0,0.0,83,0.00,,---,0.00,VWS V14.01,2013-04-29 10:50:00,
2013-04-29 03:55:00,46.3,41.4,30.27,South,180,0.7,0.7,83,0.00,,---,0.00,VWS V14.01,2013-04-29 10:55:00,
2013-04-29 04:00:00,46.1,41.2,30.27,South,180,0.4,4.5,83,0.00,,---,0.00,VWS V14.01,2013-04-29 11:00:00,
2013-04-29 04:05:00,46.1,41.5,30.27,South,180,0.0,1.1,84,0.00,,---,0.00,VWS V14.01,2013-04-29 11:05:00,
2013-04-29 04:10:00,46.1,41.5,30.27,South,180,2.5,4.0,84,0.00,,---,0.00,VWS V14.01,2013-04-29 11:10:00,
2013-04-29 04:15:00,46.1,41.5,30.27,South,180,0.7,0.7,84,0.00,,---,0.00,VWS V14.01,2013-04-29 11:15:00,
2013-04-29 04:20:00,46.3,41.4,30.27,South,180,0.2,0.4,83,0.00,,---,0.00,VWS V14.01,2013-04-29 11:20:00,
2013-04-29 04:25:00,46.3,41.4,30.27,South,180,2.7,2.7,83,0.00,,---,0.00,VWS V14.01,2013-04-29 11:25:00,
2013-04-29 04:30:00,46.3,41.7,30.27,South,180,0.2,1.1,84,0.00,,---,0.00,VWS V14.01,2013-04-29 11:30:00,
2013-04-29 04:35:00,46.1,41.5,30.27,South,180,1.8,1.8,84,0.00,,---,0.00,VWS V14.01,2013-04-29 11:35:00,
2013-04-29 04:40:00,46.1,41.5,30.28,South,180,0.4,1.8,84,0.00,,---,0.00,VWS V14.01,2013-04-29 11:40:00,
2013-04-29 04:45:00,46.1,41.2,30.27,South,180,0.4,2.5,83,0.00,,---,0.00,VWS V14.01,2013-04-29 11:45:00,
2013-04-29 04:50:00,45.9,41.0,30.27,South,180,1.1,1.1,83,0.00,,---,0.00,VWS V14.01,2013-04-29 11:50:00,
2013-04-29 04:55:00,45.7,40.8,30.27,South,180,5.6,5.6,83,0.00,,---,0.00,VWS V14.01,2013-04-29 11:55:00,
2013-04-29 05:00:00,45.7,40.8,30.27,South,180,0.7,0.7,83,0.00,,---,0.00,VWS V14.01,2013-04-29 12:00:00,
2013-04-29 05:05:00,45.4,40.2,30.27,South,180,1.1,1.1,82,0.00,,---,0.00,VWS V14.01,2013-04-29 12:05:00,
2013-04-29 05:10:00,45.2,40.0,30.27,South,180,1.3,1.3,82,0.00,,---,0.00,VWS V14.01,2013-04-29 12:10:00,
2013-04-29 05:15:00,45.0,39.5,30.27,South,180,1.3,1.3,81,0.00,,---,0.00,VWS V14.01,2013-04-29 12:15:00,
2013-04-29 05:20:00,44.6,39.1,30.27,South,180,2.5,2.5,81,0.00,,---,0.00,VWS V14.01,2013-04-29 12:20:00,
2013-04-29 05:25:00,44.6,39.1,30.28,South,180,1.3,1.8,81,0.00,,---,0.00,VWS V14.01,2013-04-29 12:25:00,
2013-04-29 05:30:00,44.5,39.0,30.28,South,180,1.1,1.8,81,0.00,,---,0.00,VWS V14.01,2013-04-29 12:30:00,
2013-04-29 05:35:00,44.5,39.0,30.28,South,180,0.4,0.4,81,0.00,,---,0.00,VWS V14.01,2013-04-29 12:35:00,
2013-04-29 05:40:00,44.5,39.0,30.28,South,180,0.2,1.1,81,0.00,,---,0.00,VWS V14.01,2013-04-29 12:40:00,
2013-04-29 05:45:00,44.6,39.1,30.27,South,180,0.0,0.7,81,0.00,,---,0.00,VWS V14.01,2013-04-29 12:45:00,
2013-04-29 05:50:00,44.6,39.1,30.27,South,180,1.3,2.2,81,0.00,,---,0.00,VWS V14.01,2013-04-29 12:50:00,
2013-04-29 05:55:00,44.8,39.3,30.27,South,180,1.1,1.1,81,0.00,,---,0.00,VWS V14.01,2013-04-29 12:55:00,
2013-04-29 06:00:00,44.6,39.1,30.28,South,180,0.2,0.4,81,0.00,,---,0.00,VWS V14.01,2013-04-29 13:00:00,
2013-04-29 06:05:00,44.6,39.1,30.28,South,180,0.9,3.8,81,0.00,,---,0.00,VWS V14.01,2013-04-29 13:05:00,
2013-04-29 06:10:00,44.6,38.8,30.28,South,180,1.1,4.0,80,0.00,,---,0.00,VWS V14.01,2013-04-29 13:10:00,
2013-04-29 06:15:00,44.6,38.8,30.29,South,180,1.8,2.0,80,0.00,,---,0.00,VWS V14.01,2013-04-29 13:15:00,
2013-04-29 06:20:00,44.8,39.0,30.28,South,180,1.6,2.0,80,0.00,,---,0.00,VWS V14.01,2013-04-29 13:20:00,
2013-04-29 06:25:00,44.8,38.7,30.28,South,180,1.8,1.8,79,0.00,,---,0.00,VWS V14.01,2013-04-29 13:25:00,
2013-04-29 06:30:00,44.8,38.7,30.28,SW,225,2.2,2.2,79,0.00,,---,0.00,VWS V14.01,2013-04-29 13:30:00,
2013-04-29 06:35:00,45.0,38.9,30.28,NE,45,2.2,4.7,79,0.00,,---,0.00,VWS V14.01,2013-04-29 13:35:00,
2013-04-29 06:40:00,45.0,38.9,30.29,South,180,1.1,1.1,79,0.00,,---,0.00,VWS V14.01,2013-04-29 13:40:00,
2013-04-29 06:45:00,45.0,38.9,30.29,SSE,158,4.3,4.3,79,0.00,,---,0.00,VWS V14.01,2013-04-29 13:45:00,
2013-04-29 06:50:00,45.0,38.9,30.29,South,180,2.2,2.2,79,0.00,,---,0.00,VWS V14.01,2013-04-29 13:50:00,
2013-04-29 06:55:00,45.0,38.9,30.30,South,180,4.0,4.0,79,0.00,,---,0.00,VWS V14.01,2013-04-29 13:55:00,
2013-04-29 07:00:00,45.0,38.9,30.30,South,180,3.1,3.1,79,0.00,,---,0.00,VWS V14.01,2013-04-29 14:00:00,
2013-04-29 07:05:00,45.0,38.9,30.30,South,180,2.5,2.5,79,0.00,,---,0.00,VWS V14.01,2013-04-29 14:05:00,
2013-04-29 07:10:00,45.0,38.9,30.30,South,180,3.1,3.1,79,0.00,,---,0.00,VWS V14.01,2013-04-29 14:10:00,
2013-04-29 07:15:00,45.0,38.9,30.31,South,180,0.7,3.6,79,0.00,,---,0.00,VWS V14.01,2013-04-29 14:15:00,
2013-04-29 07:20:00,45.0,38.9,30.31,South,180,1.8,1.8,79,0.00,,---,0.00,VWS V14.01,2013-04-29 14:20:00,
2013-04-29 07:25:00,45.0,38.9,30.31,South,180,4.0,4.0,79,0.00,,---,0.00,VWS V14.01,2013-04-29 14:25:00,
2013-04-29 07:30:00,45.4,39.3,30.31,South,180,0.4,0.4,79,0.00,,---,0.00,VWS V14.01,2013-04-29 14:30:00,
2013-04-29 07:35:00,45.4,39.3,30.31,South,180,1.6,1.6,79,0.00,,---,0.00,VWS V14.01,2013-04-29 14:35:00,
2013-04-29 07:40:00,45.5,39.4,30.31,South,180,0.0,0.0,79,0.00,,---,0.00,VWS V14.01,2013-04-29 14:40:00,
2013-04-29 07:45:00,45.4,39.3,30.31,South,180,1.6,2.5,79,0.00,,---,0.00,VWS V14.01,2013-04-29 14:45:00,
2013-04-29 07:50:00,45.4,39.3,30.32,South,180,2.2,2.5,79,0.00,,---,0.00,VWS V14.01,2013-04-29 14:50:00,
2013-04-29 07:55:00,45.4,39.6,30.32,South,180,0.4,0.7,80,0.00,,---,0.00,VWS V14.01,2013-04-29 14:55:00,
2013-04-29 08:00:00,45.4,39.6,30.32,South,180,2.7,2.7,80,0.00,,---,0.00,VWS V14.01,2013-04-29 15:00:00,
2013-04-29 08:05:00,45.4,39.9,30.32,SE,135,2.5,2.5,81,0.00,,---,0.00,VWS V14.01,2013-04-29 15:05:00,
2013-04-29 08:10:00,45.4,39.9,30.32,South,180,3.6,3.6,81,0.00,,---,0.00,VWS V14.01,2013-04-29 15:10:00,
2013-04-29 08:15:00,45.2,39.7,30.32,South,180,4.7,4.7,81,0.00,,---,0.00,VWS V14.01,2013-04-29 15:15:00,
2013-04-29 08:20:00,45.4,39.6,30.32,South,180,4.7,4.7,80,0.00,,---,0.00,VWS V14.01,2013-04-29 15:20:00,
2013-04-29 08:25:00,45.4,39.6,30.32,South,180,1.8,1.8,80,0.00,,---,0.00,VWS V14.01,2013-04-29 15:25:00,
2013-04-29 08:30:00,45.5,40.0,30.33,South,180,2.9,2.9,81,0.00,,---,0.00,VWS V14.01,2013-04-29 15:30:00,
2013-04-29 08:35:00,45.9,39.8,30.33,SSE,158,4.7,6.9,79,0.00,,---,0.00,VWS V14.01,2013-04-29 15:35:00,
2013-04-29 08:40:00,46.1,40.0,30.32,South,180,1.3,1.3,79,0.00,,---,0.00,VWS V14.01,2013-04-29 15:40:00,
2013-04-29 08:45:00,46.6,40.5,30.32,South,180,1.1,2.0,79,0.00,,---,0.00,VWS V14.01,2013-04-29 15:45:00,
2013-04-29 08:50:00,47.0,40.8,30.32,South,180,3.8,4.9,79,0.00,,---,0.00,VWS V14.01,2013-04-29 15:50:00,
2013-04-29 08:55:00,47.2,40.0,30.32,South,180,3.6,3.6,76,0.00,,---,0.00,VWS V14.01,2013-04-29 15:55:00,
2013-04-29 09:00:00,47.2,40.0,30.32,South,180,1.8,1.8,76,0.00,,---,0.00,VWS V14.01,2013-04-29 16:00:00,
2013-04-29 09:05:00,47.2,39.0,30.33,West,270,6.5,6.5,73,0.00,,---,0.00,VWS V14.01,2013-04-29 16:05:00,
2013-04-29 09:10:00,47.3,39.1,30.33,South,180,2.5,2.5,73,0.00,,---,0.00,VWS V14.01,2013-04-29 16:10:00,
2013-04-29 09:15:00,47.9,39.3,30.33,South,180,2.2,2.2,72,0.00,,---,0.00,VWS V14.01,2013-04-29 16:15:00,
2013-04-29 09:20:00,48.1,39.9,30.33,South,180,2.9,2.9,73,0.00,,---,0.00,VWS V14.01,2013-04-29 16:20:00,
2013-04-29 09:25:00,48.2,39.6,30.33,South,180,1.8,3.4,72,0.00,,---,0.00,VWS V14.01,2013-04-29 16:25:00,
2013-04-29 09:30:00,48.2,39.6,30.33,South,180,2.7,2.7,72,0.00,,---,0.00,VWS V14.01,2013-04-29 16:30:00,
2013-04-29 09:35:00,48.6,40.0,30.33,South,180,2.0,2.0,72,0.00,,---,0.00,VWS V14.01,2013-04-29 16:35:00,
2013-04-29 09:40:00,48.6,40.0,30.33,South,180,1.1,1.1,72,0.00,,---,0.00,VWS V14.01,2013-04-29 16:40:00,
2013-04-29 09:45:00,48.8,40.2,30.33,South,180,2.5,2.5,72,0.00,,---,0.00,VWS V14.01,2013-04-29 16:45:00,
2013-04-29 09:50:00,49.0,40.0,30.33,South,180,4.0,5.1,71,0.00,,---,0.00,VWS V14.01,2013-04-29 16:50:00,
2013-04-29 09:55:00,49.3,39.9,30.33,South,180,3.4,3.4,70,0.00,,---,0.00,VWS V14.01,2013-04-29 16:55:00,
2013-04-29 10:00:00,49.5,40.5,30.33,South,180,2.7,2.7,71,0.00,,---,0.00,VWS V14.01,2013-04-29 17:00:00,
2013-04-29 10:05:00,50.0,41.0,30.34,South,180,6.0,6.0,71,0.00,,---,0.00,VWS V14.01,2013-04-29 17:05:00,
2013-04-29 10:10:00,50.4,39.9,30.33,South,180,5.8,8.9,67,0.00,,---,0.00,VWS V14.01,2013-04-29 17:10:00,
2013-04-29 10:15:00,50.0,38.7,30.33,South,180,2.2,2.2,65,0.00,,---,0.00,VWS V14.01,2013-04-29 17:15:00,
2013-04-29 10:20:00,50.0,39.5,30.33,South,180,3.1,3.1,67,0.00,,---,0.00,VWS V14.01,2013-04-29 17:20:00,
2013-04-29 10:25:00,50.2,39.7,30.33,South,180,3.6,3.6,67,0.00,,---,0.00,VWS V14.01,2013-04-29 17:25:00,
2013-04-29 10:30:00,50.4,39.5,30.34,South,180,2.7,2.7,66,0.00,,---,0.00,VWS V14.01,2013-04-29 17:30:00,
2013-04-29 10:35:00,50.8,39.9,30.34,South,180,1.6,1.6,66,0.00,,---,0.00,VWS V14.01,2013-04-29 17:35:00,
2013-04-29 10:40:00,50.9,40.0,30.34,South,180,3.1,3.1,66,0.00,,---,0.00,VWS V14.01,2013-04-29 17:40:00,
2013-04-29 10:45:00,51.1,40.2,30.35,South,180,1.8,1.8,66,0.00,,---,0.00,VWS V14.01,2013-04-29 17:45:00,
2013-04-29 10:50:00,51.5,39.7,30.35,South,180,3.4,3.4,64,0.00,,---,0.00,VWS V14.01,2013-04-29 17:50:00,
2013-04-29 10:55:00,51.5,40.1,30.35,North,0,3.4,3.4,65,0.00,,---,0.00,VWS V14.01,2013-04-29 17:55:00,
2013-04-29 11:00:00,51.7,39.9,30.35,South,180,4.7,4.7,64,0.00,,---,0.00,VWS V14.01,2013-04-29 18:00:00,
2013-04-29 11:05:00,51.7,37.0,30.35,South,180,5.4,5.4,57,0.00,,---,0.00,VWS V14.01,2013-04-29 18:05:00,
2013-04-29 11:10:00,51.8,39.2,30.34,SE,135,2.7,2.7,62,0.00,,---,0.00,VWS V14.01,2013-04-29 18:10:00,
2013-04-29 11:15:00,52.2,39.6,30.34,South,180,9.8,9.8,62,0.00,,---,0.00,VWS V14.01,2013-04-29 18:15:00,
2013-04-29 11:20:00,52.7,39.6,30.34,SSE,158,4.7,4.7,61,0.00,,---,0.00,VWS V14.01,2013-04-29 18:20:00,
2013-04-29 11:25:00,53.1,39.6,30.34,South,180,4.9,4.9,60,0.00,,---,0.00,VWS V14.01,2013-04-29 18:25:00,
2013-04-29 11:30:00,53.5,40.0,30.34,South,180,3.1,3.1,60,0.00,,---,0.00,VWS V14.01,2013-04-29 18:30:00,
2013-04-29 11:35:00,53.8,40.7,30.35,South,180,2.5,2.5,61,0.00,,---,0.00,VWS V14.01,2013-04-29 18:35:00,
2013-04-29 11:40:00,54.4,40.0,30.35,South,180,2.0,2.0,58,0.00,,---,0.00,VWS V14.01,2013-04-29 18:40:00,
2013-04-29 11:45:00,55.1,41.5,30.35,South,180,2.5,2.5,60,0.00,,---,0.00,VWS V14.01,2013-04-29 18:45:00,
2013-04-29 11:50:00,55.6,41.5,30.35,South,180,6.0,6.0,59,0.00,,---,0.00,VWS V14.01,2013-04-29 18:50:00,
2013-04-29 11:55:00,55.4,40.0,30.35,SSE,158,11.6,11.6,56,0.00,,---,0.00,VWS V14.01,2013-04-29 18:55:00,
2013-04-29 12:00:00,55.6,41.1,30.35,South,180,3.6,3.6,58,0.00,,---,0.00,VWS V14.01,2013-04-29 19:00:00,
2013-04-29 12:05:00,55.1,39.2,30.35,South,180,2.7,2.7,55,0.00,,---,0.00,VWS V14.01,2013-04-29 19:05:00,
2013-04-29 12:10:00,55.1,37.8,30.35,South,180,5.4,8.5,52,0.00,,---,0.00,VWS V14.01,2013-04-29 19:10:00,
2013-04-29 12:15:00,55.1,39.2,30.35,South,180,2.7,2.7,55,0.00,,---,0.00,VWS V14.01,2013-04-29 19:15:00,
2013-04-29 12:20:00,55.6,40.6,30.35,South,180,7.6,7.6,57,0.00,,---,0.00,VWS V14.01,2013-04-29 19:20:00,
2013-04-29 12:25:00,55.8,39.9,30.35,South,180,7.6,7.6,55,0.00,,---,0.00,VWS V14.01,2013-04-29 19:25:00,
2013-04-29 12:30:00,55.4,39.5,30.35,South,180,5.8,5.8,55,0.00,,---,0.00,VWS V14.01,2013-04-29 19:30:00,
2013-04-29 12:35:00,55.8,40.4,30.35,SSE,158,7.4,7.4,56,0.00,,---,0.00,VWS V14.01,2013-04-29 19:35:00,
2013-04-29 12:40:00,56.0,39.6,30.35,South,180,4.7,4.9,54,0.00,,---,0.00,VWS V14.01,2013-04-29 19:40:00,
2013-04-29 12:45:00,56.3,40.4,30.35,South,180,4.7,4.7,55,0.00,,---,0.00,VWS V14.01,2013-04-29 19:45:00,
2013-04-29 12:50:00,56.3,40.8,30.35,South,180,1.8,1.8,56,0.00,,---,0.00,VWS V14.01,2013-04-29 19:50:00,
2013-04-29 12:55:00,56.2,41.2,30.36,South,180,0.7,0.7,57,0.00,,---,0.00,VWS V14.01,2013-04-29 19:55:00,
2013-04-29 13:00:00,55.4,41.3,30.36,South,180,2.7,2.7,59,0.00,,---,0.00,VWS V14.01,2013-04-29 20:00:00,
2013-04-29 13:05:00,54.7,41.5,30.36,South,180,5.6,5.6,61,0.00,,---,0.00,VWS V14.01,2013-04-29 20:05:00,
2013-04-29 13:10:00,54.7,41.5,30.36,South,180,6.3,6.3,61,0.00,,---,0.00,VWS V14.01,2013-04-29 20:10:00,
2013-04-29 13:15:00,55.1,41.9,30.36,SSW,202,5.4,6.0,61,0.00,,---,0.00,VWS V14.01,2013-04-29 20:15:00,
2013-04-29 13:20:00,55.3,42.1,30.36,South,180,3.1,4.3,61,0.00,,---,0.00,VWS V14.01,2013-04-29 20:20:00,
2013-04-29 13:25:00,55.8,41.3,30.36,South,180,6.9,6.9,58,0.00,,---,0.00,VWS V14.01,2013-04-29 20:25:00,
2013-04-29 13:30:00,55.8,39.9,30.36,South,180,3.4,3.4,55,0.00,,---,0.00,VWS V14.01,2013-04-29 20:30:00,
2013-04-29 13:35:00,55.8,40.8,30.36,South,180,2.7,2.7,57,0.00,,---,0.00,VWS V14.01,2013-04-29 20:35:00,
2013-04-29 13:40:00,56.5,41.9,30.36,South,180,4.7,4.7,58,0.00,,---,0.00,VWS V14.01,2013-04-29 20:40:00,
2013-04-29 13:45:00,57.2,42.1,30.35,South,180,3.1,10.1,57,0.00,,---,0.00,VWS V14.01,2013-04-29 20:45:00,
2013-04-29 13:50:00,57.6,42.5,30.35,South,180,1.1,1.1,57,0.00,,---,0.00,VWS V14.01,2013-04-29 20:50:00,
2013-04-29 13:55:00,58.0,41.0,30.35,SSE,158,2.7,2.7,53,0.00,,---,0.00,VWS V14.01,2013-04-29 20:55:00,
2013-04-29 14:00:00,58.1,41.1,30.35,South,180,4.3,4.3,53,0.00,,---,0.00,VWS V14.01,2013-04-29 21:00:00,
2013-04-29 14:05:00,58.5,41.5,30.35,South,180,4.9,4.9,53,0.00,,---,0.00,VWS V14.01,2013-04-29 21:05:00,
2013-04-29 14:10:00,58.7,41.1,30.35,South,180,7.6,7.6,52,0.00,,---,0.00,VWS V14.01,2013-04-29 21:10:00,
2013-04-29 14:15:00,58.9,41.3,30.35,South,180,8.5,8.5,52,0.00,,---,0.00,VWS V14.01,2013-04-29 21:15:00,
2013-04-29 14:20:00,58.7,41.6,30.35,South,180,6.9,7.6,53,0.00,,---,0.00,VWS V14.01,2013-04-29 21:20:00,
2013-04-29 14:25:00,58.7,42.1,30.35,South,180,1.8,1.8,54,0.00,,---,0.00,VWS V14.01,2013-04-29 21:25:00,
2013-04-29 14:30:00,58.7,42.1,30.35,South,180,2.7,2.7,54,0.00,,---,0.00,VWS V14.01,2013-04-29 21:30:00,
2013-04-29 14:35:00,58.7,42.1,30.36,South,180,5.8,5.8,54,0.00,,---,0.00,VWS V14.01,2013-04-29 21:35:00,
2013-04-29 14:40:00,58.1,39.6,30.35,South,180,2.7,3.4,50,0.00,,---,0.00,VWS V14.01,2013-04-29 21:40:00,
2013-04-29 14:45:00,58.0,40.5,30.35,East,90,1.6,1.6,52,0.00,,---,0.00,VWS V14.01,2013-04-29 21:45:00,
2013-04-29 14:50:00,57.6,38.6,30.35,South,180,0.9,0.9,49,0.00,,---,0.00,VWS V14.01,2013-04-29 21:50:00,
2013-04-29 14:55:00,57.6,39.6,30.36,SE,135,6.3,6.3,51,0.00,,---,0.00,VWS V14.01,2013-04-29 21:55:00,
2013-04-29 14:59:00,58.0,39.0,30.35,South,180,3.1,4.9,49,0.00,,---,0.00,VWS V14.01,2013-04-29 21:59:00,
2013-04-29 15:04:00,58.0,38.4,30.35,South,180,2.2,2.2,48,0.00,,---,0.00,VWS V14.01,2013-04-29 22:04:00,
2013-04-29 15:09:00,57.6,35.9,30.35,South,180,4.7,4.7,44,0.00,,---,0.00,VWS V14.01,2013-04-29 22:09:00,
2013-04-29 15:14:00,57.2,38.2,30.35,South,180,3.4,3.4,49,0.00,,---,0.00,VWS V14.01,2013-04-29 22:14:00,
2013-04-29 15:19:00,57.2,38.8,30.36,South,180,4.0,4.0,50,0.00,,---,0.00,VWS V14.01,2013-04-29 22:19:00,
2013-04-29 15:24:00,58.0,40.0,30.35,SE,135,7.6,7.6,51,0.00,,---,0.00,VWS V14.01,2013-04-29 22:24:00,
2013-04-29 15:29:00,58.7,40.6,30.35,NE,45,1.1,4.7,51,0.00,,---,0.00,VWS V14.01,2013-04-29 22:29:00,
2013-04-29 15:34:00,58.9,41.3,30.35,South,180,0.7,0.7,52,0.00,,---,0.00,VWS V14.01,2013-04-29 22:34:00,
2013-04-29 15:39:00,58.7,39.6,30.36,South,180,3.6,3.6,49,0.00,,---,0.00,VWS V14.01,2013-04-29 22:39:00,
2013-04-29 15:44:00,58.0,40.0,30.36,South,180,2.9,4.3,51,0.00,,---,0.00,VWS V14.01,2013-04-29 22:44:00,
2013-04-29 15:49:00,57.4,39.9,30.35,South,180,1.8,1.8,52,0.00,,---,0.00,VWS V14.01,2013-04-29 22:49:00,
2013-04-29 15:54:00,57.2,39.8,30.36,South,180,2.9,2.9,52,0.00,,---,0.00,VWS V14.01,2013-04-29 22:54:00,
2013-04-29 15:59:00,57.2,39.8,30.36,South,180,3.1,3.1,52,0.00,,---,0.00,VWS V14.01,2013-04-29 22:59:00,
2013-04-29 16:04:00,57.2,39.8,30.36,East,90,3.1,3.1,52,0.00,,---,0.00,VWS V14.01,2013-04-29 23:04:00,
2013-04-29 16:09:00,58.0,40.5,30.36,South,180,1.8,4.7,52,0.00,,---,0.00,VWS V14.01,2013-04-29 23:09:00,
2013-04-29 16:14:00,58.9,40.3,30.36,SSE,158,4.3,4.3,50,0.00,,---,0.00,VWS V14.01,2013-04-29 23:14:00,
2013-04-29 16:19:00,59.0,39.9,30.36,SE,135,6.3,6.3,49,0.00,,---,0.00,VWS V14.01,2013-04-29 23:19:00,
2013-04-29 16:24:00,57.8,36.6,30.36,East,90,0.0,1.1,45,0.00,,---,0.00,VWS V14.01,2013-04-29 23:24:00,
2013-04-29 16:29:00,56.9,36.9,30.36,South,180,2.9,5.1,47,0.00,,---,0.00,VWS V14.01,2013-04-29 23:29:00,
2013-04-29 16:34:00,56.5,37.6,30.36,South,180,1.1,2.0,49,0.00,,---,0.00,VWS V14.01,2013-04-29 23:34:00,
2013-04-29 16:39:00,56.9,38.5,30.36,South,180,1.3,1.3,50,0.00,,---,0.00,VWS V14.01,2013-04-29 23:39:00,
2013-04-29 16:44:00,57.4,37.3,30.36,South,180,1.3,2.7,47,0.00,,---,0.00,VWS V14.01,2013-04-29 23:44:00,
2013-04-29 16:49:00,57.4,38.9,30.35,South,180,1.8,1.8,50,0.00,,---,0.00,VWS V14.01,2013-04-29 23:49:00,
2013-04-29 16:54:00,57.2,38.8,30.36,SE,135,3.4,3.4,50,0.00,,---,0.00,VWS V14.01,2013-04-29 23:54:00,
2013-04-29 16:59:00,57.1,38.1,30.35,South,180,2.2,2.2,49,0.00,,---,0.00,VWS V14.01,2013-04-29 23:59:00,
2013-04-29 17:04:00,56.5,37.1,30.36,South,180,0.9,0.9,48,0.00,,---,0.00,VWS V14.01,2013-04-30 00:04:00,
2013-04-29 17:09:00,56.2,36.3,30.36,South,180,1.3,1.3,47,0.00,,---,0.00,VWS V14.01,2013-04-30 00:09:00,
2013-04-29 17:14:00,55.6,36.8,30.36,South,180,2.0,2.0,49,0.00,,---,0.00,VWS V14.01,2013-04-30 00:14:00,
2013-04-29 17:19:00,55.3,37.0,30.36,SE,135,4.9,4.9,50,0.00,,---,0.00,VWS V14.01,2013-04-30 00:19:00,
2013-04-29 17:24:00,55.1,36.8,30.36,South,180,2.0,2.0,50,0.00,,---,0.00,VWS V14.01,2013-04-30 00:24:00,
2013-04-29 17:29:00,55.1,36.8,30.36,South,180,1.3,2.5,50,0.00,,---,0.00,VWS V14.01,2013-04-30 00:29:00,
2013-04-29 17:34:00,54.9,36.6,30.37,South,180,1.8,1.8,50,0.00,,---,0.00,VWS V14.01,2013-04-30 00:34:00,
2013-04-29 17:39:00,54.5,36.3,30.37,South,180,5.8,5.8,50,0.00,,---,0.00,VWS V14.01,2013-04-30 00:39:00,
2013-04-29 17:44:00,54.2,36.0,30.37,South,180,2.5,3.4,50,0.00,,---,0.00,VWS V14.01,2013-04-30 00:44:00,
2013-04-29 17:49:00,54.0,35.8,30.37,South,180,1.6,1.6,50,0.00,,---,0.00,VWS V14.01,2013-04-30 00:49:00,
2013-04-29 17:54:00,53.6,35.4,30.38,SSE,158,3.1,4.0,50,0.00,,---,0.00,VWS V14.01,2013-04-30 00:54:00,
2013-04-29 17:59:00,53.3,35.7,30.37,South,180,3.8,3.8,51,0.00,,---,0.00,VWS V14.01,2013-04-30 00:59:00,
2013-04-29 18:04:00,52.9,35.3,30.37,South,180,8.1,8.1,51,0.00,,---,0.00,VWS V14.01,2013-04-30 01:04:00,
2013-04-29 18:09:00,52.7,35.6,30.37,South,180,0.9,1.1,52,0.00,,---,0.00,VWS V14.01,2013-04-30 01:09:00,
2013-04-29 18:14:00,52.7,35.6,30.37,South,180,0.9,3.4,52,0.00,,---,0.00,VWS V14.01,2013-04-30 01:14:00,
2013-04-29 18:19:00,52.9,36.2,30.37,ESE,112,0.4,2.2,53,0.00,,---,0.00,VWS V14.01,2013-04-30 01:19:00,
2013-04-29 18:24:00,52.7,36.1,30.38,SE,135,5.6,5.6,53,0.00,,---,0.00,VWS V14.01,2013-04-30 01:24:00,
2013-04-29 18:29:00,52.4,35.3,30.38,SSE,158,4.5,6.3,52,0.00,,---,0.00,VWS V14.01,2013-04-30 01:29:00,
2013-04-29 18:34:00,52.2,35.6,30.37,South,180,0.9,1.6,53,0.00,,---,0.00,VWS V14.01,2013-04-30 01:34:00,
2013-04-29 18:39:00,52.0,35.4,30.37,South,180,3.4,4.3,53,0.00,,---,0.00,VWS V14.01,2013-04-30 01:39:00,
2013-04-29 18:44:00,51.8,35.2,30.37,South,180,2.5,2.5,53,0.00,,---,0.00,VWS V14.01,2013-04-30 01:44:00,
2013-04-29 18:49:00,51.7,35.6,30.37,South,180,1.6,1.6,54,0.00,,---,0.00,VWS V14.01,2013-04-30 01:49:00,
2013-04-29 18:54:00,51.5,35.4,30.37,South,180,6.3,6.3,54,0.00,,---,0.00,VWS V14.01,2013-04-30 01:54:00,
2013-04-29 18:59:00,51.3,35.2,30.37,South,180,2.2,3.4,54,0.00,,---,0.00,VWS V14.01,2013-04-30 01:59:00,
2013-04-29 19:04:00,51.3,35.2,30.38,South,180,2.9,2.9,54,0.00,,---,0.00,VWS V14.01,2013-04-30 02:04:00,
2013-04-29 19:09:00,50.9,34.9,30.37,South,180,1.8,1.8,54,0.00,,---,0.00,VWS V14.01,2013-04-30 02:09:00,
2013-04-29 19:14:00,50.8,34.8,30.38,South,180,2.7,4.0,54,0.00,,---,0.00,VWS V14.01,2013-04-30 02:14:00,
2013-04-29 19:19:00,50.4,34.9,30.38,South,180,6.0,6.0,55,0.00,,---,0.00,VWS V14.01,2013-04-30 02:19:00,
2013-04-29 19:24:00,50.0,34.5,30.38,South,180,2.2,2.2,55,0.00,,---,0.00,VWS V14.01,2013-04-30 02:24:00,
2013-04-29 19:29:00,50.0,34.5,30.38,South,180,1.8,1.8,55,0.00,,---,0.00,VWS V14.01,2013-04-30 02:29:00,
2013-04-29 19:34:00,49.5,34.0,30.38,South,180,4.9,4.9,55,0.00,,---,0.00,VWS V14.01,2013-04-30 02:34:00,
2013-04-29 19:39:00,49.3,33.8,30.38,South,180,4.3,4.3,55,0.00,,---,0.00,VWS V14.01,2013-04-30 02:39:00,
2013-04-29 19:44:00,49.1,33.7,30.38,South,180,1.3,1.3,55,0.00,,---,0.00,VWS V14.01,2013-04-30 02:44:00,
2013-04-29 19:49:00,49.0,34.0,30.38,South,180,1.3,1.3,56,0.00,,---,0.00,VWS V14.01,2013-04-30 02:49:00,
2013-04-29 19:54:00,48.6,33.6,30.38,South,180,1.6,3.6,56,0.00,,---,0.00,VWS V14.01,2013-04-30 02:54:00,
2013-04-29 19:59:00,48.6,33.6,30.38,South,180,1.8,1.8,56,0.00,,---,0.00,VWS V14.01,2013-04-30 02:59:00,
2013-04-29 20:04:00,48.4,33.9,30.38,South,180,1.1,3.4,57,0.00,,---,0.00,VWS V14.01,2013-04-30 03:04:00,
2013-04-29 20:09:00,48.2,33.7,30.38,South,180,2.2,2.2,57,0.00,,---,0.00,VWS V14.01,2013-04-30 03:09:00,
2013-04-29 20:14:00,48.1,34.0,30.38,South,180,2.0,2.5,58,0.00,,---,0.00,VWS V14.01,2013-04-30 03:14:00,
2013-04-29 20:19:00,47.9,33.8,30.38,South,180,3.1,3.1,58,0.00,,---,0.00,VWS V14.01,2013-04-30 03:19:00,
2013-04-29 20:24:00,47.7,33.7,30.38,South,180,1.8,2.9,58,0.00,,---,0.00,VWS V14.01,2013-04-30 03:24:00,
2013-04-29 20:29:00,47.5,33.9,30.38,South,180,0.9,1.1,59,0.00,,---,0.00,VWS V14.01,2013-04-30 03:29:00,
2013-04-29 20:34:00,47.3,33.7,30.38,South,180,3.1,3.1,59,0.00,,---,0.00,VWS V14.01,2013-04-30 03:34:00,
2013-04-29 20:39:00,47.0,33.8,30.39,South,180,2.0,2.0,60,0.00,,---,0.00,VWS V14.01,2013-04-30 03:39:00,
2013-04-29 20:44:00,46.8,33.2,30.39,South,180,1.8,1.8,59,0.00,,---,0.00,VWS V14.01,2013-04-30 03:44:00,
2013-04-29 20:49:00,46.4,33.3,30.39,South,180,2.9,2.9,60,0.00,,---,0.00,VWS V14.01,2013-04-30 03:49:00,
2013-04-29 20:54:00,46.1,33.0,30.39,South,180,5.8,5.8,60,0.00,,---,0.00,VWS V14.01,2013-04-30 03:54:00,
2013-04-29 20:59:00,45.7,32.6,30.39,South,180,1.8,1.8,60,0.00,,---,0.00,VWS V14.01,2013-04-30 03:59:00,
2013-04-29 21:01:00,45.7,32.6,30.39,South,180,4.5,4.5,60,0.00,,---,0.00,VWS V14.01,2013-04-30 04:01:00,
2013-04-29 21:06:00,45.5,32.4,30.39,South,180,1.8,1.8,60,0.00,,---,0.00,VWS V14.01,2013-04-30 04:06:00,
2013-04-29 21:11:00,45.4,32.8,30.39,South,180,2.2,2.2,61,0.00,,---,0.00,VWS V14.01,2013-04-30 04:11:00,
2013-04-29 21:16:00,45.2,32.6,30.39,South,180,0.7,0.9,61,0.00,,---,0.00,VWS V14.01,2013-04-30 04:16:00,
2013-04-29 21:21:00,45.0,32.4,30.40,South,180,0.0,0.0,61,0.00,,---,0.00,VWS V14.01,2013-04-30 04:21:00,
2013-04-29 21:26:00,44.8,32.6,30.40,South,180,1.1,1.1,62,0.00,,---,0.00,VWS V14.01,2013-04-30 04:26:00,
2013-04-29 21:31:00,44.6,32.8,30.40,South,180,1.3,1.3,63,0.00,,---,0.00,VWS V14.01,2013-04-30 04:31:00,
2013-04-29 21:36:00,44.3,32.5,30.40,South,180,1.1,1.1,63,0.00,,---,0.00,VWS V14.01,2013-04-30 04:36:00,
2013-04-29 21:41:00,44.3,32.5,30.40,South,180,0.9,0.9,63,0.00,,---,0.00,VWS V14.01,2013-04-30 04:41:00,
2013-04-29 21:46:00,44.1,32.7,30.40,South,180,2.5,2.5,64,0.00,,---,0.00,VWS V14.01,2013-04-30 04:46:00,
2013-04-29 21:51:00,43.9,32.5,30.40,South,180,1.3,1.3,64,0.00,,---,0.00,VWS V14.01,2013-04-30 04:51:00,
2013-04-29 21:56:00,43.9,32.5,30.40,South,180,3.8,3.8,64,0.00,,---,0.00,VWS V14.01,2013-04-30 04:56:00,
2013-04-29 22:01:00,43.7,32.3,30.40,South,180,1.1,1.1,64,0.00,,---,0.00,VWS V14.01,2013-04-30 05:01:00,
2013-04-29 22:06:00,43.6,32.6,30.40,South,180,0.4,0.4,65,0.00,,---,0.00,VWS V14.01,2013-04-30 05:06:00,
2013-04-29 22:11:00,43.6,33.0,30.40,South,180,3.4,3.4,66,0.00,,---,0.00,VWS V14.01,2013-04-30 05:11:00,
2013-04-29 22:16:00,43.2,32.6,30.40,South,180,1.6,1.6,66,0.00,,---,0.00,VWS V14.01,2013-04-30 05:16:00,
2013-04-29 22:21:00,43.2,32.6,30.40,South,180,1.8,1.8,66,0.00,,---,0.00,VWS V14.01,2013-04-30 05:21:00,
2013-04-29 22:26:00,43.0,32.8,30.40,South,180,2.5,2.5,67,0.00,,---,0.00,VWS V14.01,2013-04-30 05:26:00,
2013-04-29 22:31:00,42.8,33.0,30.40,South,180,2.5,2.5,68,0.00,,---,0.00,VWS V14.01,2013-04-30 05:31:00,
2013-04-29 22:36:00,42.8,33.0,30.40,South,180,4.5,4.5,68,0.00,,---,0.00,VWS V14.01,2013-04-30 05:36:00,
2013-04-29 22:41:00,42.8,33.0,30.40,South,180,2.0,2.0,68,0.00,,---,0.00,VWS V14.01,2013-04-30 05:41:00,
2013-04-29 22:46:00,42.7,32.9,30.40,South,180,2.9,2.9,68,0.00,,---,0.00,VWS V14.01,2013-04-30 05:46:00,
2013-04-29 22:51:00,42.8,33.0,30.40,South,180,2.7,2.7,68,0.00,,---,0.00,VWS V14.01,2013-04-30 05:51:00,
2013-04-29 22:56:00,42.7,32.9,30.40,South,180,2.5,2.5,68,0.00,,---,0.00,VWS V14.01,2013-04-30 05:56:00,
2013-04-29 23:01:00,42.7,32.9,30.40,South,180,1.8,4.7,68,0.00,,---,0.00,VWS V14.01,2013-04-30 06:01:00,
2013-04-29 23:06:00,42.5,32.7,30.40,South,180,1.6,2.2,68,0.00,,---,0.00,VWS V14.01,2013-04-30 06:06:00,
2013-04-29 23:11:00,42.1,32.7,30.40,South,180,1.6,3.4,69,0.00,,---,0.00,VWS V14.01,2013-04-30 06:11:00,
2013-04-29 23:15:00,42.1,32.7,30.40,South,180,2.7,2.7,69,0.00,,---,0.00,VWS V14.01,2013-04-30 06:15:00,
2013-04-29 23:20:00,42.3,32.9,30.40,South,180,4.3,4.3,69,0.00,,---,0.00,VWS V14.01,2013-04-30 06:20:00,
2013-04-29 23:25:00,42.3,32.9,30.40,South,180,2.7,3.8,69,0.00,,---,0.00,VWS V14.01,2013-04-30 06:25:00,
2013-04-29 23:30:00,42.1,33.0,30.40,South,180,0.9,3.4,70,0.00,,---,0.00,VWS V14.01,2013-04-30 06:30:00,
2013-04-29 23:35:00,41.9,32.8,30.40,South,180,1.1,2.2,70,0.00,,---,0.00,VWS V14.01,2013-04-30 06:35:00,
2013-04-29 23:40:00,41.9,32.5,30.40,South,180,0.9,2.7,69,0.00,,---,0.00,VWS V14.01,2013-04-30 06:40:00,
2013-04-29 23:45:00,41.9,32.5,30.40,South,180,3.6,4.0,69,0.00,,---,0.00,VWS V14.01,2013-04-30 06:45:00,
2013-04-29 23:50:00,41.9,32.1,30.40,South,180,3.1,3.1,68,0.00,,---,0.00,VWS V14.01,2013-04-30 06:50:00,
2013-04-29 23:55:00,41.8,32.4,30.40,South,180,6.7,6.7,69,0.00,,---,0.00,VWS V14.01,2013-04-30 06:55:00,